Time;durP1;ratioP1;P1;durP2;ratioP2;P2;SDS_P1;SDS_P2;PMS_P1;PMS_P2;Temp;Humidity;BMP_temperature;BMP_pressure;BME280_temperature;BME280_humidity;BME280_pressure;Samples;Min_cycle;Max_cycle;Signal;HPM_P1;HPM_P2
2021/04/01 00:00:16;;;;;;;40.90;21.83;;;;;;;10.99;54.91;100850.75;5052842;28;20021;-83
2021/04/01 00:02:51;;;;;;;45.60;23.60;;;;;;;11.07;53.32;100839.38;5053878;28;20115;-83
2021/04/01 00:05:17;;;;;;;41.97;23.92;;;;;;;11.19;53.58;100833.13;5053636;28;20393;-83
2021/04/01 00:07:43;;;;;;;44.60;23.98;;;;;;;11.21;53.32;100836.56;5053995;28;20020;-83
2021/04/01 00:10:12;;;;;;;39.10;22.98;;;;;;;11.15;54.98;100838.41;5054426;28;20025;-84
2021/04/01 00:12:37;;;;;;;42.70;23.48;;;;;;;11.07;56.40;100843.72;5052438;28;20024;-84
2021/04/01 00:15:05;;;;;;;42.63;23.77;;;;;;;11.00;57.27;100842.97;5052534;28;20058;-84
2021/04/01 00:17:31;;;;;;;37.78;22.83;;;;;;;11.01;56.18;100833.44;5053709;28;20029;-83
2021/04/01 00:19:56;;;;;;;40.65;22.98;;;;;;;10.98;56.13;100830.88;5052914;28;20028;-83
2021/04/01 00:22:21;;;;;;;43.58;24.42;;;;;;;11.12;54.81;100838.47;5053995;28;20017;-83
2021/04/01 00:24:46;;;;;;;41.63;23.80;;;;;;;11.09;56.21;100838.50;5053809;28;20059;-84
2021/04/01 00:27:12;;;;;;;39.53;23.50;;;;;;;11.08;55.88;100837.63;5053043;28;20063;-84
2021/04/01 00:29:37;;;;;;;38.17;22.45;;;;;;;10.92;54.93;100839.63;5053611;28;20055;-84
2021/04/01 00:32:03;;;;;;;41.90;25.23;;;;;;;10.96;54.45;100835.22;5054071;28;20031;-85
2021/04/01 00:34:28;;;;;;;42.70;22.98;;;;;;;10.96;54.68;100843.00;5053036;28;20021;-85
2021/04/01 00:36:53;;;;;;;37.97;22.65;;;;;;;10.92;56.57;100836.16;5053857;28;20017;-84
2021/04/01 00:39:19;;;;;;;41.20;23.98;;;;;;;10.82;57.63;100833.72;5052908;28;20032;-84
2021/04/01 00:41:44;;;;;;;42.85;24.27;;;;;;;10.78;56.02;100836.38;5053046;28;20461;-84
2021/04/01 00:44:09;;;;;;;39.35;23.02;;;;;;;10.71;54.69;100827.81;5055197;28;20537;-84
2021/04/01 00:46:36;;;;;;;41.88;24.02;;;;;;;10.82;54.19;100830.25;5054266;28;20528;-84
2021/04/01 00:49:02;;;;;;;42.65;24.30;;;;;;;10.91;54.24;100824.94;5053170;28;20021;-84
2021/04/01 00:51:27;;;;;;;41.33;23.60;;;;;;;10.88;54.74;100822.38;5053306;28;20077;-84
2021/04/01 00:53:53;;;;;;;41.05;24.02;;;;;;;10.79;56.51;100818.19;5053502;28;20033;-85
2021/04/01 00:56:19;;;;;;;41.97;22.67;;;;;;;10.74;57.58;100809.59;5053942;28;20029;-84
2021/04/01 00:58:44;;;;;;;40.60;23.38;;;;;;;10.86;55.84;100812.91;5053414;28;20032;-85
2021/04/01 01:03:35;;;;;;;40.47;24.05;;;;;;;11.19;52.48;100809.78;5054843;28;20032;-84
2021/04/01 01:06:01;;;;;;;49.78;26.45;;;;;;;11.32;52.57;100814.75;5052671;28;20025;-84
2021/04/01 01:08:26;;;;;;;43.17;25.25;;;;;;;11.27;54.52;100820.91;5054877;28;20028;-84
2021/04/01 01:10:51;;;;;;;42.35;24.25;;;;;;;11.16;55.89;100817.59;5054679;28;20060;-84
2021/04/01 01:13:17;;;;;;;44.47;25.10;;;;;;;11.11;54.79;100819.41;5052137;28;20032;-84
2021/04/01 01:15:42;;;;;;;51.47;25.20;;;;;;;11.06;54.57;100823.84;5053054;28;20029;-84
2021/04/01 01:18:08;;;;;;;42.58;23.98;;;;;;;11.09;55.23;100821.19;5052365;28;20040;-84
2021/04/01 01:20:33;;;;;;;45.05;24.35;;;;;;;11.00;56.05;100823.94;5051775;28;20059;-84
2021/04/01 01:23:03;;;;;;;47.30;26.00;;;;;;;11.01;53.69;100818.72;5052229;28;20032;-85
2021/04/01 01:25:28;;;;;;;42.47;24.27;;;;;;;11.03;56.33;100818.69;5052565;28;20021;-84
2021/04/01 01:27:54;;;;;;;44.22;25.42;;;;;;;11.06;55.86;100816.06;5056990;28;20032;-84
2021/04/01 01:30:20;;;;;;;43.25;25.65;;;;;;;11.09;55.48;100810.81;5056378;28;20059;-85
2021/04/01 01:32:49;;;;;;;42.92;25.67;;;;;;;11.13;55.64;100807.28;5055272;28;20028;-85
2021/04/01 01:35:26;;;;;;;48.55;26.55;;;;;;;11.23;54.85;100811.41;5055761;28;20032;-84
2021/04/01 01:37:54;;;;;;;45.67;26.13;;;;;;;11.28;54.38;100806.16;5055418;28;20059;-84
2021/04/01 01:40:21;;;;;;;45.70;26.38;;;;;;;11.35;54.99;100806.91;5060971;28;20023;-84
2021/04/01 01:42:48;;;;;;;44.05;25.10;;;;;;;11.36;54.38;100804.31;5056090;28;20465;-84
2021/04/01 01:45:14;;;;;;;46.17;26.50;;;;;;;11.38;52.67;100797.31;5055360;28;20052;-84
2021/04/01 01:47:40;;;;;;;48.75;27.65;;;;;;;11.40;51.97;100795.56;5055119;28;20029;-84
2021/04/01 01:50:06;;;;;;;50.55;28.92;;;;;;;11.47;53.16;100798.91;5056214;28;20115;-84
2021/04/01 01:52:31;;;;;;;48.65;28.50;;;;;;;11.51;52.54;100801.44;5054808;28;20078;-84
2021/04/01 01:54:56;;;;;;;47.65;26.88;;;;;;;11.44;53.55;100798.97;5055167;28;20388;-84
2021/04/01 01:57:21;;;;;;;52.97;29.70;;;;;;;11.32;53.33;100800.03;5054877;28;20123;-84
2021/04/01 01:59:47;;;;;;;48.78;27.65;;;;;;;11.26;52.88;100790.59;5054838;28;20021;-84
2021/04/01 02:02:12;;;;;;;51.80;30.73;;;;;;;11.23;53.63;100798.44;5054804;28;20455;-84
2021/04/01 02:04:37;;;;;;;55.72;30.63;;;;;;;11.14;54.93;100788.22;5054414;28;20044;-84
2021/04/01 02:07:03;;;;;;;55.30;31.05;;;;;;;11.36;53.41;100793.03;5054508;28;20032;-84
2021/04/01 02:09:28;;;;;;;54.08;30.13;;;;;;;11.32;53.72;100792.22;5054456;28;20526;-85
2021/04/01 02:11:53;;;;;;;53.38;32.20;;;;;;;11.29;53.43;100790.53;5054214;28;20119;-84
2021/04/01 02:14:19;;;;;;;55.35;31.55;;;;;;;11.47;52.11;100793.72;5055753;28;20079;-85
2021/04/01 02:16:44;;;;;;;56.78;31.40;;;;;;;11.30;54.73;100801.81;5055295;28;20055;-85
2021/04/01 02:19:10;;;;;;;52.63;30.13;;;;;;;11.06;55.94;100803.94;5054272;28;20043;-85
2021/04/01 02:21:35;;;;;;;55.33;32.15;;;;;;;11.35;53.53;100804.31;5055640;28;20021;-84
2021/04/01 02:24:00;;;;;;;54.47;31.65;;;;;;;11.28;55.47;100804.41;5055745;28;20023;-85
2021/04/01 02:26:26;;;;;;;53.00;31.85;;;;;;;11.05;56.87;100806.53;5054605;28;20025;-85
2021/04/01 02:28:51;;;;;;;52.08;30.52;;;;;;;11.07;56.44;100823.81;5054103;28;20052;-84
2021/04/01 02:31:20;;;;;;;57.38;33.30;;;;;;;11.25;54.84;100832.19;5054774;28;20108;-84
2021/04/01 02:33:46;;;;;;;54.80;33.00;;;;;;;11.53;52.89;100833.41;5054542;28;20029;-85
2021/04/01 02:36:12;;;;;;;59.58;33.67;;;;;;;11.64;52.38;100832.38;5055041;28;20021;-85
2021/04/01 02:38:37;;;;;;;55.42;32.20;;;;;;;11.81;50.65;100821.66;5053190;28;20054;-84
2021/04/01 02:41:03;;;;;;;54.40;30.70;;;;;;;11.71;51.29;100821.84;5055475;28;20397;-84
2021/04/01 02:43:32;;;;;;;54.28;31.30;;;;;;;11.76;50.58;100811.38;5054151;28;20052;-84
2021/04/01 02:46:01;;;;;;;55.40;32.08;;;;;;;11.80;50.14;100793.97;5054170;28;20021;-84
2021/04/01 02:48:27;;;;;;;58.90;32.72;;;;;;;11.77;50.36;100783.63;5054669;28;20035;-84
2021/04/01 02:50:53;;;;;;;55.42;31.20;;;;;;;11.73;50.50;100788.91;5054039;28;20025;-84
2021/04/01 02:53:18;;;;;;;52.38;30.73;;;;;;;11.59;51.65;100784.84;5055239;28;20082;-84
2021/04/01 02:55:44;;;;;;;52.10;30.08;;;;;;;11.61;51.26;100783.94;5054193;28;20021;-84
2021/04/01 02:58:09;;;;;;;53.50;32.00;;;;;;;11.54;52.13;100779.72;5053547;28;20543;-84
2021/04/01 03:00:37;;;;;;;51.90;31.73;;;;;;;11.46;53.25;100784.22;5053309;28;20027;-84
2021/04/01 03:03:25;;;;;;;50.50;31.23;;;;;;;11.51;51.73;100777.16;5053289;28;20085;-84
2021/04/01 03:05:50;;;;;;;50.13;31.23;;;;;;;11.37;53.22;100776.59;5053353;28;20025;-84
2021/04/01 03:08:16;;;;;;;50.60;30.58;;;;;;;11.23;54.18;100772.47;5053268;28;20144;-84
2021/04/01 03:10:41;;;;;;;49.33;29.70;;;;;;;11.09;54.03;100771.88;5053371;28;20115;-84
2021/04/01 03:13:08;;;;;;;49.83;29.63;;;;;;;11.05;55.42;100763.28;5053824;28;20025;-84
2021/04/01 03:15:33;;;;;;;54.75;31.40;;;;;;;10.96;54.48;100767.75;5053196;28;20112;-84
2021/04/01 03:17:58;;;;;;;51.92;32.17;;;;;;;11.18;52.66;100760.47;5053108;28;20117;-84
2021/04/01 03:20:24;;;;;;;50.10;29.92;;;;;;;11.20;53.84;100764.75;5054256;28;20029;-84
2021/04/01 03:22:49;;;;;;;50.63;30.30;;;;;;;11.17;52.68;100767.38;5053602;28;20017;-84
2021/04/01 03:25:15;;;;;;;49.30;29.90;;;;;;;11.10;52.75;100781.38;5054274;28;20067;-85
2021/04/01 03:27:42;;;;;;;48.05;29.40;;;;;;;11.18;50.91;100774.31;5052909;28;20036;-84
2021/04/01 03:30:13;;;;;;;53.08;29.70;;;;;;;11.29;49.37;100774.97;5053960;28;20086;-84
2021/04/01 03:32:44;;;;;;;51.00;29.50;;;;;;;11.46;48.03;100785.06;5052814;28;20028;-84
2021/04/01 03:35:12;;;;;;;48.85;29.35;;;;;;;11.58;46.25;100781.38;5053882;28;20104;-84
2021/04/01 03:37:39;;;;;;;49.78;28.45;;;;;;;11.66;45.19;100795.06;5053076;28;20048;-84
2021/04/01 03:40:06;;;;;;;48.80;28.35;;;;;;;11.63;45.73;100792.53;5052674;28;20434;-84
2021/04/01 03:42:32;;;;;;;47.13;27.60;;;;;;;11.60;46.22;100791.75;5052753;28;20029;-84
2021/04/01 03:44:57;;;;;;;48.65;27.95;;;;;;;11.53;46.49;100794.44;5053663;28;20103;-84
2021/04/01 03:47:22;;;;;;;46.88;28.20;;;;;;;11.44;46.80;100793.75;5052637;28;20500;-84
2021/04/01 03:49:48;;;;;;;50.42;30.20;;;;;;;11.45;46.71;100783.38;5052408;28;20075;-84
2021/04/01 03:52:13;;;;;;;49.25;29.45;;;;;;;11.36;47.21;100777.44;5052997;28;20063;-84
2021/04/01 03:54:38;;;;;;;50.22;29.70;;;;;;;11.28;47.35;100775.84;5052559;28;20025;-84
2021/04/01 03:57:04;;;;;;;53.28;30.45;;;;;;;11.34;47.15;100763.66;5056312;28;20388;-84
2021/04/01 03:59:53;;;;;;;53.13;31.27;;;;;;;11.29;46.33;100761.13;5059095;28;20024;-83
2021/04/01 04:02:37;;;;;;;49.00;29.63;;;;;;;11.16;47.81;100764.84;5056860;28;20032;-83
2021/04/01 04:08:07;;;;;;;52.47;31.05;;;;;;;11.17;47.45;100777.78;5054078;28;20028;-84
2021/04/01 04:10:41;;;;;;;46.63;29.98;;;;;;;11.19;47.25;100773.41;5053310;28;20167;-84
2021/04/01 04:13:18;;;;;;;51.10;29.92;;;;;;;11.10;47.36;100778.78;5052198;28;20032;-83
2021/04/01 04:15:43;;;;;;;56.85;31.75;;;;;;;11.12;46.94;100766.63;5054388;28;20077;-84
2021/04/01 04:18:09;;;;;;;54.28;31.83;;;;;;;11.02;47.20;100778.03;5055338;28;20492;-84
2021/04/01 04:20:34;;;;;;;53.55;32.35;;;;;;;10.93;47.18;100778.19;5053980;28;20104;-84
2021/04/01 04:22:59;;;;;;;53.53;30.70;;;;;;;10.91;47.17;100779.97;5053386;28;20029;-84
2021/04/01 04:25:26;;;;;;;52.13;30.15;;;;;;;10.89;47.91;100779.13;5053690;28;20071;-84
2021/04/01 04:28:06;;;;;;;54.15;32.75;;;;;;;10.73;48.35;100781.94;5052285;28;20028;-84
2021/04/01 04:30:31;;;;;;;59.53;32.22;;;;;;;10.63;49.46;100779.53;5053685;28;20056;-84
2021/04/01 04:32:57;;;;;;;54.47;33.83;;;;;;;10.47;50.53;100773.72;5052269;28;20064;-84
2021/04/01 04:35:22;;;;;;;52.05;32.63;;;;;;;10.40;50.60;100770.34;5052498;28;20212;-84
2021/04/01 04:37:48;;;;;;;55.67;34.60;;;;;;;10.34;51.66;100766.13;5052561;28;20025;-84
2021/04/01 04:40:14;;;;;;;58.05;34.45;;;;;;;10.36;51.53;100763.47;5053883;28;20025;-84
2021/04/01 04:42:39;;;;;;;58.55;34.20;;;;;;;10.25;52.32;100768.81;5053938;28;20028;-83
2021/04/01 04:45:06;;;;;;;52.25;33.45;;;;;;;10.24;52.49;100763.63;5053404;28;20055;-84
2021/04/01 04:47:32;;;;;;;59.05;34.30;;;;;;;10.28;52.13;100747.16;5052390;28;20020;-83
2021/04/01 04:49:57;;;;;;;56.95;34.65;;;;;;;10.23;52.50;100743.78;5053656;28;20499;-84
2021/04/01 04:52:22;;;;;;;59.40;34.67;;;;;;;10.22;52.13;100737.72;5052282;28;20025;-84
2021/04/01 04:54:48;;;;;;;58.13;35.72;;;;;;;10.21;52.64;100737.75;5052110;28;20021;-84
2021/04/01 05:05:33;;;;;;;59.20;35.00;;;;;;;10.14;52.59;100755.13;5056762;28;20104;-84
2021/04/01 05:07:59;;;;;;;63.08;36.15;;;;;;;10.11;52.93;100765.53;5056824;28;20392;-84
2021/04/01 05:10:24;;;;;;;60.42;35.53;;;;;;;10.14;51.87;100768.06;5055841;28;20028;-84
2021/04/01 05:13:02;;;;;;;60.03;35.42;;;;;;;10.03;53.21;100768.19;5055792;28;20123;-83
2021/04/01 05:15:27;;;;;;;56.78;35.05;;;;;;;10.02;52.61;100766.50;5055465;28;20409;-84
2021/04/01 05:17:57;;;;;;;63.53;36.40;;;;;;;10.01;52.74;100775.16;5055095;28;20060;-85
2021/04/01 05:20:22;;;;;;;62.13;37.03;;;;;;;10.02;52.98;100776.84;5056508;28;20024;-84
2021/04/01 05:22:55;;;;;;;68.15;37.85;;;;;;;9.96;53.21;100789.88;5057582;28;20032;-85
2021/04/01 05:25:22;;;;;;;65.18;38.20;;;;;;;9.95;53.39;100792.50;5057839;28;20021;-84
2021/04/01 05:27:52;;;;;;;66.95;39.42;;;;;;;9.98;53.25;100790.75;5055245;28;20036;-85
2021/04/01 05:30:19;;;;;;;61.95;38.17;;;;;;;10.00;53.63;100782.94;5057839;28;20036;-85
2021/04/01 05:32:44;;;;;;;68.00;39.20;;;;;;;9.91;53.02;100784.78;5056981;28;20032;-84
2021/04/01 05:35:14;;;;;;;64.93;39.33;;;;;;;9.94;53.92;100785.59;5056168;28;20021;-84
2021/04/01 05:37:40;;;;;;;66.97;38.38;;;;;;;9.82;54.41;100789.19;5056024;28;20079;-83
2021/04/01 05:40:07;;;;;;;67.30;38.60;;;;;;;9.88;53.51;100776.16;5055729;28;20424;-83
2021/04/01 05:42:36;;;;;;;67.45;39.38;;;;;;;9.83;54.86;100784.00;5055495;28;20056;-84
2021/04/01 05:45:12;;;;;;;69.15;39.33;;;;;;;9.90;53.73;100779.59;5056501;28;20392;-84
2021/04/01 05:47:44;;;;;;;63.00;38.67;;;;;;;9.96;54.72;100786.44;5057969;28;20040;-83
2021/04/01 05:51:13;;;;;;;66.63;39.67;;;;;;;10.01;54.07;100780.34;5058169;28;20021;-83
2021/04/01 05:54:00;;;;;;;72.10;39.35;;;;;;;10.05;53.60;100771.63;5049980;28;20033;-83
2021/04/01 06:01:48;;;;;;;68.40;37.97;;;;;;;9.98;54.60;100775.19;5058708;28;20445;-83
2021/04/01 06:04:40;;;;;;;70.97;39.17;;;;;;;10.04;53.97;100785.47;5057853;28;20484;-84
2021/04/01 06:07:11;;;;;;;65.78;39.13;;;;;;;10.00;54.60;100780.34;5056659;28;20554;-83
2021/04/01 06:09:43;;;;;;;71.95;40.70;;;;;;;10.05;54.10;100784.59;5055829;28;20100;-83
2021/04/01 06:12:09;;;;;;;68.72;41.42;;;;;;;10.11;54.23;100789.69;5055361;28;20016;-84
2021/04/01 06:14:36;;;;;;;67.05;40.65;;;;;;;10.23;54.10;100786.09;5056839;28;20052;-83
2021/04/01 06:17:06;;;;;;;69.72;41.85;;;;;;;10.35;53.43;100798.06;5055401;28;20025;-83
2021/04/01 06:19:34;;;;;;;70.93;42.42;;;;;;;10.27;53.86;100802.50;5055736;28;20091;-84
2021/04/01 06:22:05;;;;;;;72.65;41.20;;;;;;;10.23;53.78;100796.47;5057394;28;20071;-84
2021/04/01 06:24:32;;;;;;;81.80;42.58;;;;;;;10.59;52.93;100796.84;5056323;28;20504;-84
2021/04/01 06:27:12;;;;;;;79.80;41.97;;;;;;;10.53;54.47;100799.53;5055110;28;20093;-84
2021/04/01 06:29:40;;;;;;;76.18;43.03;;;;;;;10.36;55.12;100800.63;5055078;28;20025;-83
2021/04/01 06:32:18;;;;;;;72.68;41.97;;;;;;;10.47;53.94;100799.66;5054682;28;20113;-84
2021/04/01 06:34:43;;;;;;;76.07;43.28;;;;;;;10.79;53.42;100814.75;5055599;28;20128;-84
2021/04/01 06:37:38;;;;;;;70.97;42.33;;;;;;;10.93;52.93;100809.31;5055613;28;20049;-84
2021/04/01 06:40:06;;;;;;;71.25;43.25;;;;;;;11.21;52.23;100805.41;5055829;28;20028;-83
2021/04/01 06:42:36;;;;;;;73.50;44.28;;;;;;;11.06;52.56;100810.88;5057189;28;20028;-83
2021/04/01 06:45:08;;;;;;;75.80;43.42;;;;;;;10.62;53.47;100819.31;5057695;28;20066;-83
2021/04/01 06:47:34;;;;;;;70.82;44.58;;;;;;;10.42;55.02;100806.63;5055309;28;20029;-84
2021/04/01 06:50:07;;;;;;;73.82;45.17;;;;;;;10.43;54.94;100808.34;5055570;28;20024;-84
2021/04/01 06:52:35;;;;;;;75.75;46.22;;;;;;;10.17;55.91;100819.88;5055271;28;20496;-84
2021/04/01 06:55:16;;;;;;;79.30;47.70;;;;;;;9.98;56.56;100824.44;5056245;28;20430;-86
2021/04/01 07:03:12;;;;;;;84.50;49.25;;;;;;;9.75;58.34;100831.56;5065242;28;20052;-85
2021/04/01 07:05:44;;;;;;;85.95;49.03;;;;;;;9.63;59.16;100825.63;5061391;28;20122;-85
2021/04/01 07:08:10;;;;;;;77.68;46.83;;;;;;;9.63;60.47;100829.97;5058383;28;20020;-82
2021/04/01 07:10:46;;;;;;;83.35;50.92;;;;;;;9.47;61.48;100828.41;5056231;28;20044;-83
2021/04/01 07:13:19;;;;;;;85.82;49.70;;;;;;;9.57;62.03;100825.69;5055691;28;20417;-82
2021/04/01 07:15:48;;;;;;;83.97;48.95;;;;;;;9.46;62.33;100814.59;5054865;28;20029;-82
2021/04/01 07:32:35;;;;;;;86.03;50.15;;;;;;;9.73;62.88;100823.84;5001235;28;20038;-85
2021/04/01 07:35:35;;;;;;;89.32;52.35;;;;;;;9.71;64.08;100833.34;5054935;28;20083;-85
2021/04/01 07:46:33;;;;;;;88.65;52.53;;;;;;;10.17;63.70;100840.59;5055709;28;20101;-85
2021/04/01 07:49:10;;;;;;;85.22;50.42;;;;;;;10.17;63.39;100830.25;5058105;28;20374;-82
2021/04/01 07:51:57;;;;;;;93.50;53.92;;;;;;;9.96;65.20;100833.09;5056599;28;20417;-83
2021/04/01 07:54:35;;;;;;;93.93;54.08;;;;;;;9.74;65.71;100838.50;5056835;28;20025;-83
2021/04/01 07:57:24;;;;;;;95.15;52.92;;;;;;;9.69;66.87;100835.09;5058440;28;20096;-82
2021/04/01 08:00:08;;;;;;;83.60;50.67;;;;;;;10.06;66.20;100845.91;5058627;28;20082;-81
2021/04/01 08:02:52;;;;;;;82.65;49.95;;;;;;;11.46;61.23;100852.59;5058992;28;20455;-83
2021/04/01 08:05:23;;;;;;;90.30;51.70;;;;;;;11.39;62.30;100838.00;5054257;28;20440;-83
2021/04/01 08:07:54;;;;;;;86.53;49.25;;;;;;;12.06;60.35;100837.66;5054540;28;20021;-83
2021/04/01 08:10:24;;;;;;;84.60;51.55;;;;;;;11.55;62.00;100846.38;5052942;28;20025;-83
2021/04/01 08:12:55;;;;;;;76.13;46.45;;;;;;;11.70;62.46;100846.13;5052629;28;20029;-83
2021/04/01 08:15:25;;;;;;;77.38;44.45;;;;;;;10.79;65.96;100866.63;5053135;28;20044;-83
2021/04/01 08:20:19;;;;;;;77.30;46.95;;;;;;;10.39;68.64;100874.94;5053968;28;20028;-83
2021/04/01 08:22:58;;;;;;;74.53;42.97;;;;;;;9.98;70.90;100877.97;5054593;28;20025;-82
2021/04/01 08:25:26;;;;;;;64.35;40.63;;;;;;;10.41;69.38;100875.78;5055099;28;20032;-82
2021/04/01 08:28:09;;;;;;;66.65;40.40;;;;;;;10.57;66.93;100874.69;5054857;28;20103;-83
2021/04/01 08:31:11;;;;;;;62.13;37.20;;;;;;;11.60;63.97;100878.31;5053719;28;20031;-82
2021/04/01 08:33:54;;;;;;;63.17;36.20;;;;;;;11.57;64.38;100880.97;5053704;28;20025;-83
2021/04/01 08:36:20;;;;;;;60.78;36.45;;;;;;;11.73;63.08;100887.63;5056286;28;20388;-83
2021/04/01 08:38:46;;;;;;;61.42;36.05;;;;;;;10.99;64.47;100887.09;5056459;28;20021;-83
2021/04/01 08:41:18;;;;;;;57.58;34.38;;;;;;;11.41;63.42;100882.13;5056556;28;20024;-84
2021/04/01 08:44:18;;;;;;;54.15;33.30;;;;;;;11.14;64.33;100889.44;5056565;28;20029;-84
2021/04/01 08:46:49;;;;;;;50.92;31.67;;;;;;;11.38;63.36;100895.16;5057546;28;20065;-83
2021/04/01 08:49:35;;;;;;;58.55;34.75;;;;;;;12.05;61.87;100904.41;5057230;28;20025;-83
2021/04/01 08:52:38;;;;;;;51.00;31.92;;;;;;;12.47;60.36;100891.47;5057281;28;20028;-84
2021/04/01 08:55:05;;;;;;;51.65;30.83;;;;;;;12.12;60.89;100905.16;5055623;28;20032;-84
2021/04/01 08:57:44;;;;;;;45.08;28.45;;;;;;;12.02;62.11;100904.47;5058030;28;20036;-84
2021/04/01 09:00:14;;;;;;;45.70;27.95;;;;;;;11.24;64.34;100911.81;5055644;28;20117;-84
2021/04/01 09:02:47;;;;;;;48.13;26.67;;;;;;;11.90;62.91;100907.28;5055539;28;20067;-84
2021/04/01 09:05:13;;;;;;;44.40;25.60;;;;;;;11.96;62.31;100920.19;5055686;28;20032;-83
2021/04/01 09:07:46;;;;;;;41.28;25.05;;;;;;;11.71;63.50;100919.72;5055629;28;20029;-84
2021/04/01 09:10:20;;;;;;;33.78;21.35;;;;;;;12.11;61.82;100924.25;5056800;28;20440;-84
2021/04/01 09:15:49;;;;;;;33.83;20.98;;;;;;;12.61;60.98;100928.44;5057227;28;20119;-84
2021/04/01 09:18:29;;;;;;;32.75;20.95;;;;;;;11.58;63.87;100934.66;5055819;28;20024;-84
2021/04/01 09:20:59;;;;;;;33.47;19.85;;;;;;;11.81;64.56;100941.22;5055481;28;20056;-84
2021/04/01 09:23:38;;;;;;;35.28;21.05;;;;;;;12.48;60.93;100926.13;5055271;28;20028;-84
2021/04/01 09:26:06;;;;;;;33.83;21.27;;;;;;;13.17;59.73;100935.06;5057837;28;20025;-84
2021/04/01 09:28:33;;;;;;;36.33;21.08;;;;;;;14.00;56.77;100939.13;5055220;28;20393;-84
2021/04/01 09:31:01;;;;;;;34.70;20.60;;;;;;;14.00;56.06;100934.75;5057028;28;20469;-84
2021/04/01 09:33:29;;;;;;;32.10;19.88;;;;;;;14.63;54.17;100929.59;5058478;28;20029;-82
2021/04/01 09:36:09;;;;;;;32.83;18.58;;;;;;;14.90;52.68;100934.00;5058535;28;20484;-83
2021/04/01 09:38:39;;;;;;;32.28;19.08;;;;;;;14.49;54.41;100938.63;5059225;28;20021;-83
2021/04/01 09:41:05;;;;;;;31.48;20.10;;;;;;;14.68;53.99;100940.75;5059842;28;20037;-82
2021/04/01 09:43:30;;;;;;;29.70;17.30;;;;;;;14.40;53.87;100938.88;5061999;28;20392;-82
2021/04/01 09:46:08;;;;;;;25.98;14.95;;;;;;;14.46;53.67;100943.09;5060469;28;20024;-82
2021/04/01 09:48:39;;;;;;;24.38;15.02;;;;;;;13.92;55.91;100948.91;5060259;28;20049;-83
2021/04/01 09:51:19;;;;;;;22.70;14.32;;;;;;;14.38;55.74;100951.16;5058468;28;20025;-80
2021/04/01 09:53:54;;;;;;;21.60;13.75;;;;;;;15.43;52.24;100943.69;5057118;28;20029;-80
2021/04/01 09:56:27;;;;;;;23.67;13.30;;;;;;;14.39;54.69;100944.16;5055577;28;20017;-80
2021/04/01 09:58:54;;;;;;;19.27;11.45;;;;;;;13.97;56.28;100953.09;5057026;28;20499;-80
2021/04/01 10:01:35;;;;;;;19.48;10.07;;;;;;;15.64;52.19;100947.38;5056470;28;20025;-80
2021/04/01 10:04:06;;;;;;;20.13;10.95;;;;;;;13.97;58.04;100947.88;5056546;28;20020;-80
2021/04/01 10:06:40;;;;;;;15.77;9.25;;;;;;;13.54;60.01;100961.97;5056292;28;20025;-79
2021/04/01 10:09:17;;;;;;;18.40;10.40;;;;;;;13.93;58.47;100951.47;5055878;28;20029;-78
2021/04/01 10:11:46;;;;;;;17.40;8.90;;;;;;;15.31;54.58;100958.00;5054155;28;20025;-78
2021/04/01 10:14:12;;;;;;;13.80;6.72;;;;;;;13.84;58.15;100962.13;5055258;28;20370;-78
2021/04/01 10:16:48;;;;;;;13.43;6.32;;;;;;;13.20;60.40;100961.03;5055106;28;20044;-78
2021/04/01 10:19:15;;;;;;;14.10;5.97;;;;;;;11.87;65.76;100973.19;5055150;28;20036;-78
2021/04/01 10:21:45;;;;;;;17.02;6.28;;;;;;;11.13;68.87;100969.97;5055169;28;20481;-78
2021/04/01 10:24:21;;;;;;;17.85;5.95;;;;;;;11.16;69.40;100993.28;5055580;28;20028;-79
2021/04/01 10:26:51;;;;;;;13.68;6.10;;;;;;;11.21;69.71;100994.94;5056316;28;20028;-80
2021/04/01 10:29:26;;;;;;;14.18;6.25;;;;;;;10.78;71.26;101003.28;5054956;28;20024;-80
2021/04/01 10:31:52;;;;;;;13.80;5.65;;;;;;;10.32;73.08;101001.19;5055853;28;20452;-80
2021/04/01 10:34:29;;;;;;;14.07;5.13;;;;;;;10.23;73.80;101011.63;5056174;28;20044;-81
2021/04/01 10:36:58;;;;;;;17.27;6.25;;;;;;;9.80;75.80;101016.31;5055543;28;20017;-80
2021/04/01 10:39:26;;;;;;;18.15;5.20;;;;;;;9.49;76.67;101013.09;5057330;28;20060;-80
2021/04/01 10:41:54;;;;;;;11.93;4.35;;;;;;;9.71;76.61;101024.16;5058745;28;20028;-81
2021/04/01 10:44:21;;;;;;;11.00;4.00;;;;;;;9.68;75.83;101025.03;5059315;28;20044;-81
2021/04/01 10:47:06;;;;;;;14.65;4.03;;;;;;;9.41;77.25;101026.94;5057720;28;20061;-81
2021/04/01 10:49:37;;;;;;;10.13;3.45;;;;;;;9.61;76.91;101028.56;5057947;28;20027;-80
2021/04/01 10:52:13;;;;;;;12.00;3.55;;;;;;;9.32;76.02;101021.81;5056023;28;20025;-80
2021/04/01 10:54:44;;;;;;;9.98;2.97;;;;;;;9.37;76.21;101029.56;5057253;28;20039;-81
2021/04/01 10:57:25;;;;;;;9.02;3.25;;;;;;;9.66;74.42;101035.38;5056797;28;20017;-80
2021/04/01 10:59:50;;;;;;;14.02;3.63;;;;;;;9.85;73.33;101038.75;5053922;28;20047;-80
2021/04/01 11:02:23;;;;;;;8.57;2.90;;;;;;;9.80;72.77;101043.09;5054863;28;20120;-80
2021/04/01 11:04:57;;;;;;;10.13;3.28;;;;;;;9.78;72.62;101029.28;5057102;28;20033;-80
2021/04/01 11:07:24;;;;;;;5.45;2.42;;;;;;;9.77;72.29;101040.50;5055059;28;20025;-80
2021/04/01 11:09:50;;;;;;;8.27;2.65;;;;;;;9.69;71.98;101047.47;5056315;28;20409;-81
2021/04/01 11:12:19;;;;;;;14.85;3.88;;;;;;;9.36;73.53;101051.13;5056703;28;20025;-80
2021/04/01 11:15:01;;;;;;;9.13;3.22;;;;;;;9.49;72.88;101065.72;5054199;28;20399;-80
2021/04/01 11:17:30;;;;;;;11.95;2.70;;;;;;;9.21;73.80;101060.69;5055392;28;20027;-81
2021/04/01 11:19:58;;;;;;;11.55;2.85;;;;;;;9.16;74.09;101061.56;5056945;28;20028;-80
2021/04/01 11:22:24;;;;;;;10.93;3.15;;;;;;;9.02;74.42;101065.94;5056212;28;20131;-80
2021/04/01 11:24:49;;;;;;;9.57;2.92;;;;;;;9.00;75.26;101063.38;5056442;28;20060;-81
2021/04/01 11:27:19;;;;;;;10.18;3.22;;;;;;;8.91;75.65;101069.44;5055923;28;20021;-80
2021/04/01 11:29:55;;;;;;;10.48;3.35;;;;;;;9.09;75.29;101070.25;5056389;28;20507;-81
2021/04/01 11:32:22;;;;;;;11.02;3.00;;;;;;;8.91;75.64;101076.34;5059573;28;20385;-83
2021/04/01 11:34:48;;;;;;;8.50;2.92;;;;;;;8.58;76.09;101078.13;5061367;28;20564;-82
2021/04/01 11:37:18;;;;;;;8.73;3.30;;;;;;;8.88;75.17;101084.97;5058261;28;20112;-82
2021/04/01 11:39:43;;;;;;;7.18;2.35;;;;;;;9.16;73.42;101085.72;5055995;28;20032;-82
2021/04/01 11:42:18;;;;;;;9.07;3.05;;;;;;;9.41;72.76;101083.03;5054920;28;20029;-81
2021/04/01 11:44:44;;;;;;;;;;;;;;;9.61;71.15;101082.94;5055091;28;20017;-80
2021/04/01 11:47:19;;;;;;;8.48;2.63;;;;;;;9.69;70.09;101084.59;5055312;28;19913;-80
2021/04/01 11:49:46;;;;;;;8.40;2.30;;;;;;;9.57;70.30;101088.97;5054336;28;20025;-81
2021/04/01 11:52:12;;;;;;;7.85;2.30;;;;;;;10.44;67.13;101078.00;5055862;28;20119;-80
2021/04/01 11:54:38;;;;;;;8.52;2.17;;;;;;;10.33;67.13;101085.03;5055293;28;20025;-81
2021/04/01 11:57:15;;;;;;;7.88;2.40;;;;;;;10.01;67.91;101078.34;5055090;28;20099;-81
2021/04/01 11:59:42;;;;;;;5.95;2.03;;;;;;;10.69;65.24;101072.59;5053389;28;20021;-80
2021/04/01 12:02:10;;;;;;;6.90;2.10;;;;;;;10.20;66.74;101080.78;5054884;28;20024;-78
2021/04/01 12:04:38;;;;;;;8.25;2.30;;;;;;;10.56;66.05;101084.78;5053376;28;20033;-78
2021/04/01 12:07:06;;;;;;;7.72;2.22;;;;;;;10.65;65.79;101074.31;5051634;28;20021;-78
2021/04/01 12:09:32;;;;;;;6.13;2.10;;;;;;;12.47;58.81;101070.97;5051715;28;20048;-78
2021/04/01 12:11:57;;;;;;;6.22;2.45;;;;;;;10.48;65.30;101086.63;5052784;28;20068;-78
2021/04/01 12:14:32;;;;;;;8.32;2.60;;;;;;;10.96;64.29;101084.38;5052108;28;20051;-78
2021/04/01 12:17:05;;;;;;;5.80;2.30;;;;;;;10.08;65.65;101086.94;5051636;28;20029;-78
2021/04/01 12:19:33;;;;;;;5.13;2.20;;;;;;;10.53;63.59;101084.81;5053426;28;20029;-78